Terminal Aerodrome Forecast
Issued by NWS Sterling, VA

Current Version | Previous Version | Text Only | Print | Product List | Glossary Off
Versions: 1 2 3 4 5 6 7 8 9 10 11 12 13 14 15 16 17 18 19 20 21 22 23 24 25 26 27 28 29 30 31 32

000
FTUS41 KLWX 042100 AAA
TAFIAD
TAF AMD
KIAD 042100Z 0421/0524 VRB03KT 6SM BR SCT008 BKN060
     FM042200 02005KT 4SM -RA BR SCT008 OVC025
     FM050200 02004KT 2SM -RA BR OVC015
     FM050600 36005KT 1SM -RASN BR OVC008
     FM051000 35014KT 1SM -SNPL BR OVC008
     FM051300 35010KT 1/2SM SN OVC004
     FM052000 35008KT 3SM -SN OVC020=

USA.gov is the U.S. government's official web portal to all federal, state and local government web resources and services.